createdAt,value
2022-09-18T00:01:31.135Z,25.60
2022-09-18T00:04:01.027Z,25.60
2022-09-18T00:06:32.749Z,25.60
2022-09-18T00:09:02.357Z,25.60
2022-09-18T00:11:35.403Z,25.60
2022-09-18T00:14:03.149Z,25.60
2022-09-18T00:16:30.885Z,25.60
2022-09-18T00:18:58.748Z,25.60
2022-09-18T00:21:28.093Z,25.60
2022-09-18T00:23:58.960Z,25.60
2022-09-18T00:26:26.675Z,25.60
2022-09-18T00:28:56.065Z,25.60
2022-09-18T00:31:26.423Z,25.60
2022-09-18T00:33:54.624Z,25.60
2022-09-18T00:36:23.477Z,25.60
2022-09-18T00:38:51.340Z,25.60
2022-09-18T00:41:23.747Z,25.60
2022-09-18T00:43:52.762Z,25.60
2022-09-18T00:46:27.405Z,25.60
2022-09-18T00:49:03.049Z,25.60
2022-09-18T00:51:33.401Z,25.60
2022-09-18T00:54:07.863Z,25.60
2022-09-18T00:56:37.938Z,25.60
2022-09-18T00:59:05.703Z,25.60
2022-09-18T01:01:33.470Z,25.60
2022-09-18T01:04:01.361Z,25.50
2022-09-18T01:06:37.520Z,25.50
2022-09-18T01:09:10.262Z,25.50
2022-09-18T01:11:47.269Z,25.50
2022-09-18T01:14:26.425Z,25.50
2022-09-18T01:17:01.667Z,25.50
2022-09-18T01:19:52.579Z,25.50
2022-09-18T01:22:32.934Z,25.50
2022-09-18T01:25:16.433Z,25.50
2022-09-18T01:28:04.769Z,25.50
2022-09-18T01:30:33.502Z,25.50
2022-09-18T01:33:07.361Z,25.50
2022-09-18T01:35:41.935Z,25.50
2022-09-18T01:38:19.937Z,25.50
2022-09-18T01:40:51.988Z,25.50
2022-09-18T01:43:23.081Z,25.50
2022-09-18T01:45:54.642Z,25.50
2022-09-18T01:48:37.366Z,25.50
2022-09-18T01:51:14.176Z,25.50
2022-09-18T01:53:46.616Z,25.50
2022-09-18T01:56:18.950Z,25.50
2022-09-18T01:58:50.199Z,25.50
2022-09-18T02:01:23.202Z,25.50
2022-09-18T02:03:56.561Z,25.50
2022-09-18T02:06:29.613Z,25.50
2022-09-18T02:09:01.056Z,25.50
2022-09-18T02:11:29.352Z,25.50
2022-09-18T02:14:09.190Z,25.50
2022-09-18T02:16:59.905Z,25.50
2022-09-18T02:19:33.765Z,25.50
2022-09-18T02:22:05.355Z,25.50
2022-09-18T02:24:37.035Z,25.50
2022-09-18T02:27:07.937Z,25.50
2022-09-18T02:29:37.960Z,25.50
2022-09-18T02:32:06.246Z,25.50
2022-09-18T02:34:34.541Z,25.50
2022-09-18T02:37:13.006Z,25.50
2022-09-18T02:39:53.013Z,25.50
2022-09-18T02:42:34.015Z,25.50
2022-09-18T02:45:12.201Z,25.50
2022-09-18T02:47:58.421Z,25.50
2022-09-18T02:50:33.604Z,25.50
2022-09-18T02:53:06.762Z,25.50
2022-09-18T02:55:42.945Z,25.50
2022-09-18T02:58:17.923Z,25.50
2022-09-18T03:00:52.538Z,25.50
2022-09-18T03:03:28.243Z,25.50
2022-09-18T03:06:03.342Z,25.50
2022-09-18T03:08:34.203Z,25.50
2022-09-18T03:11:01.974Z,25.50
2022-09-18T03:13:30.222Z,25.50
2022-09-18T03:15:59.320Z,25.50
2022-09-18T03:18:27.450Z,25.50
2022-09-18T03:20:57.345Z,25.50
2022-09-18T03:23:25.072Z,25.50
2022-09-18T03:25:59.799Z,25.50
2022-09-18T03:28:27.650Z,25.50
2022-09-18T03:30:55.404Z,25.50
2022-09-18T03:33:24.682Z,25.50
2022-09-18T03:35:53.317Z,25.50
2022-09-18T03:38:21.045Z,25.50
2022-09-18T03:40:50.606Z,25.50
2022-09-18T03:43:18.336Z,25.50
2022-09-18T03:45:47.226Z,25.50
2022-09-18T03:48:16.623Z,25.50
2022-09-18T03:50:46.151Z,25.50
2022-09-18T03:53:13.848Z,25.50
2022-09-18T03:55:56.712Z,25.50
2022-09-18T03:58:43.449Z,25.50
2022-09-18T04:01:29.685Z,25.50
2022-09-18T04:04:20.214Z,25.50
2022-09-18T04:07:12.160Z,25.40
2022-09-18T04:09:57.292Z,25.40
2022-09-18T04:12:25.093Z,25.40
2022-09-18T04:15:15.920Z,25.50
2022-09-18T04:17:44.276Z,25.40
2022-09-18T04:20:12.396Z,25.40
2022-09-18T04:22:41.488Z,25.40
2022-09-18T04:25:10.162Z,25.40
2022-09-18T04:27:38.044Z,25.40
2022-09-18T04:30:06.683Z,25.50
2022-09-18T04:32:36.107Z,25.40
2022-09-18T04:35:05.292Z,25.50
2022-09-18T04:37:33.223Z,25.40
2022-09-18T04:40:04.773Z,25.50
2022-09-18T04:42:32.624Z,25.50
2022-09-18T04:45:01.932Z,25.40
2022-09-18T04:47:29.637Z,25.40
2022-09-18T04:49:57.913Z,25.40
2022-09-18T04:52:28.043Z,25.40
2022-09-18T04:54:55.741Z,25.40
2022-09-18T04:57:26.328Z,25.40
2022-09-18T04:59:54.063Z,25.40
2022-09-18T05:02:23.237Z,25.40
2022-09-18T05:04:53.979Z,25.40
2022-09-18T05:07:28.022Z,25.40
2022-09-18T05:09:56.041Z,25.40
2022-09-18T05:12:23.756Z,25.40
2022-09-18T05:14:52.760Z,25.40
2022-09-18T05:17:20.766Z,25.40
2022-09-18T05:20:07.173Z,25.40
2022-09-18T05:22:39.511Z,25.40
2022-09-18T05:25:11.940Z,25.40
2022-09-18T05:27:40.269Z,25.40
2022-09-18T05:30:11.749Z,25.40
2022-09-18T05:32:59.260Z,25.40
2022-09-18T05:35:29.508Z,25.40
2022-09-18T05:37:57.413Z,25.40
2022-09-18T05:40:26.783Z,25.40
2022-09-18T05:42:55.164Z,25.40
2022-09-18T05:45:24.417Z,25.40
2022-09-18T05:47:56.525Z,25.40
2022-09-18T05:50:25.336Z,25.40
2022-09-18T05:53:03.895Z,25.40
2022-09-18T05:55:40.716Z,25.40
2022-09-18T05:58:14.218Z,25.40
2022-09-18T06:00:45.504Z,25.40
2022-09-18T06:03:20.300Z,25.40
2022-09-18T06:05:53.370Z,25.40
2022-09-18T06:08:22.578Z,25.40
2022-09-18T06:10:50.389Z,25.50
2022-09-18T06:13:19.616Z,25.40
2022-09-18T06:15:57.336Z,25.40
2022-09-18T06:18:36.492Z,25.40
2022-09-18T06:21:05.345Z,25.40
2022-09-18T06:23:33.171Z,25.50
2022-09-18T06:26:12.774Z,25.50
2022-09-18T06:28:42.710Z,25.50
2022-09-18T06:31:12.198Z,25.50
2022-09-18T06:34:06.389Z,25.50
2022-09-18T06:36:34.116Z,25.50
2022-09-18T06:39:15.294Z,25.50
2022-09-18T06:41:44.419Z,25.50
2022-09-18T06:44:21.401Z,25.50
2022-09-18T06:46:56.567Z,25.50
2022-09-18T06:49:28.604Z,25.50
2022-09-18T06:51:57.432Z,25.50
2022-09-18T06:54:25.140Z,25.50
2022-09-18T06:56:52.921Z,25.50
2022-09-18T06:59:22.285Z,25.50
2022-09-18T07:01:51.910Z,25.50
2022-09-18T07:04:44.120Z,25.50
2022-09-18T07:07:11.985Z,25.50
2022-09-18T07:09:39.777Z,25.50
2022-09-18T07:12:16.460Z,25.50
2022-09-18T07:14:48.533Z,25.50
2022-09-18T07:17:19.253Z,25.50
2022-09-18T07:19:53.566Z,25.50
2022-09-18T07:22:24.689Z,25.50
2022-09-18T07:24:53.733Z,25.50
2022-09-18T07:27:22.880Z,25.50
2022-09-18T07:29:51.655Z,25.50
2022-09-18T07:32:22.007Z,25.50
2022-09-18T07:34:50.123Z,25.50
2022-09-18T07:37:26.600Z,25.50
2022-09-18T07:40:12.508Z,25.50
2022-09-18T07:43:00.960Z,25.50
2022-09-18T07:45:29.933Z,25.50
2022-09-18T07:47:57.970Z,25.50
2022-09-18T07:50:25.768Z,25.50
2022-09-18T07:52:57.640Z,25.50
2022-09-18T07:55:30.127Z,25.50
2022-09-18T07:58:01.432Z,25.50
2022-09-18T08:01:05.726Z,25.50
2022-09-18T08:03:41.430Z,25.50
2022-09-18T08:06:12.475Z,25.50
2022-09-18T08:09:08.375Z,25.50
2022-09-18T08:11:54.731Z,25.50
2022-09-18T08:14:37.939Z,25.50
2022-09-18T08:17:17.681Z,25.50
2022-09-18T08:20:09.020Z,25.50
2022-09-18T08:23:08.656Z,25.50
2022-09-18T08:25:41.168Z,25.50
2022-09-18T08:28:09.209Z,25.50
2022-09-18T08:30:44.231Z,25.50
2022-09-18T08:33:13.463Z,25.50
2022-09-18T08:35:41.756Z,25.50
2022-09-18T08:38:28.093Z,25.60
2022-09-18T08:41:33.300Z,25.60
2022-09-18T08:44:06.538Z,25.60
2022-09-18T08:46:41.892Z,25.60
2022-09-18T08:49:23.922Z,25.60
2022-09-18T08:51:59.177Z,25.50
2022-09-18T08:54:40.686Z,25.50
2022-09-18T08:57:19.944Z,25.50
2022-09-18T09:00:02.557Z,25.50
2022-09-18T09:02:39.673Z,25.50
2022-09-18T09:05:12.913Z,25.50
2022-09-18T09:08:04.285Z,25.50
2022-09-18T09:10:43.597Z,25.50
2022-09-18T09:13:45.357Z,25.50
2022-09-18T09:16:17.497Z,25.50
2022-09-18T09:18:59.025Z,25.50
2022-09-18T09:21:49.641Z,25.50
2022-09-18T09:24:29.353Z,25.50
2022-09-18T09:27:22.708Z,25.50
2022-09-18T09:30:20.691Z,25.50
2022-09-18T09:33:17.374Z,25.50
2022-09-18T09:36:21.604Z,25.50
2022-09-18T09:38:53.765Z,25.50
2022-09-18T09:41:29.467Z,25.50
2022-09-18T09:44:05.643Z,25.60
2022-09-18T09:46:50.196Z,25.60
2022-09-18T09:49:22.413Z,25.60
2022-09-18T09:51:57.313Z,25.60
2022-09-18T09:54:25.944Z,25.60
2022-09-18T09:57:00.297Z,25.60
2022-09-18T09:59:35.625Z,25.60
2022-09-18T10:02:35.557Z,25.70
2022-09-18T10:05:13.385Z,25.70
2022-09-18T10:07:47.304Z,25.70
2022-09-18T10:10:24.136Z,25.70
2022-09-18T10:12:55.677Z,25.70
2022-09-18T10:15:34.753Z,25.70
2022-09-18T10:18:08.585Z,25.70
2022-09-18T10:20:37.553Z,25.80
2022-09-18T10:23:14.238Z,25.80
2022-09-18T10:25:45.982Z,25.80
2022-09-18T10:28:14.253Z,25.80
2022-09-18T10:31:00.441Z,25.80
2022-09-18T10:33:40.234Z,25.80
2022-09-18T10:36:29.452Z,25.90
2022-09-18T10:39:00.786Z,25.90
2022-09-18T10:41:40.429Z,25.90
2022-09-18T10:44:23.102Z,25.90
2022-09-18T10:46:59.025Z,25.90
2022-09-18T10:49:34.008Z,25.90
2022-09-18T10:52:29.729Z,26.00
2022-09-18T10:55:01.893Z,26.00
2022-09-18T10:57:32.601Z,26.00
2022-09-18T11:00:22.020Z,26.00
2022-09-18T11:02:57.809Z,26.00
2022-09-18T11:05:32.123Z,26.10
2022-09-18T11:08:05.980Z,26.10
2022-09-18T11:10:36.831Z,26.10
2022-09-18T11:13:05.818Z,26.20
2022-09-18T11:15:54.944Z,26.20
2022-09-18T11:18:24.303Z,26.20
2022-09-18T11:20:55.626Z,26.20
2022-09-18T11:23:28.685Z,26.10
2022-09-18T11:26:17.040Z,26.10
2022-09-18T11:28:59.973Z,26.00
2022-09-18T11:31:40.489Z,25.80
2022-09-18T11:34:19.347Z,25.70
2022-09-18T11:36:52.082Z,25.50
2022-09-18T11:39:25.329Z,25.50
2022-09-18T11:41:55.733Z,25.40
2022-09-18T11:44:27.492Z,25.40
2022-09-18T11:47:23.674Z,25.40
2022-09-18T11:49:56.439Z,25.40
2022-09-18T11:52:31.097Z,25.40
2022-09-18T11:55:12.814Z,25.40
2022-09-18T11:57:44.741Z,25.50
2022-09-18T12:00:18.579Z,25.50
2022-09-18T12:03:05.043Z,25.50
2022-09-18T12:05:41.696Z,25.50
2022-09-18T12:08:19.189Z,25.50
2022-09-18T12:11:01.724Z,25.50
2022-09-18T12:13:40.098Z,25.50
2022-09-18T12:16:15.411Z,25.50
2022-09-18T12:18:52.697Z,25.50
2022-09-18T12:21:26.577Z,25.50
2022-09-18T12:23:55.830Z,25.50
2022-09-18T12:26:35.700Z,25.50
2022-09-18T12:29:15.325Z,25.50
2022-09-18T12:31:56.816Z,25.50
2022-09-18T12:34:33.832Z,25.50
2022-09-18T12:37:28.473Z,25.50
2022-09-18T12:40:28.830Z,25.50
2022-09-18T12:43:09.133Z,25.50
2022-09-18T12:46:20.225Z,25.50
2022-09-18T12:49:06.611Z,25.50
2022-09-18T12:51:42.129Z,25.50
2022-09-18T12:54:27.936Z,25.50
2022-09-18T12:57:13.111Z,25.50
2022-09-18T12:59:53.966Z,25.50
2022-09-18T13:02:50.563Z,25.50
2022-09-18T13:05:23.247Z,25.50
2022-09-18T13:07:54.707Z,25.50
2022-09-18T13:10:26.365Z,25.50
2022-09-18T13:13:00.256Z,25.50
2022-09-18T13:15:31.143Z,25.50
2022-09-18T13:18:10.644Z,25.50
2022-09-18T13:20:42.612Z,25.50
2022-09-18T13:23:16.673Z,25.50
2022-09-18T13:25:47.213Z,25.50
2022-09-18T13:28:19.445Z,25.50
2022-09-18T13:30:49.014Z,25.50
2022-09-18T13:33:25.191Z,25.50
2022-09-18T13:35:56.420Z,25.50
2022-09-18T13:38:26.105Z,25.50
2022-09-18T13:41:00.451Z,25.50
2022-09-18T13:43:41.372Z,25.50
2022-09-18T13:46:28.822Z,25.50
2022-09-18T13:48:57.125Z,25.50
2022-09-18T13:51:31.123Z,25.50
2022-09-18T13:54:23.466Z,25.50
2022-09-18T13:57:24.570Z,25.60
2022-09-18T13:59:55.820Z,25.50
2022-09-18T14:02:26.921Z,25.60
2022-09-18T14:05:28.496Z,25.50
2022-09-18T14:08:10.993Z,25.50
2022-09-18T14:11:14.449Z,25.50
2022-09-18T14:13:53.863Z,25.50
2022-09-18T14:16:32.980Z,25.50
2022-09-18T14:19:08.140Z,25.50
2022-09-18T14:21:43.161Z,25.50
2022-09-18T14:24:37.711Z,25.50
2022-09-18T14:27:44.175Z,25.50
2022-09-18T14:30:15.597Z,25.50
2022-09-18T14:32:54.436Z,25.50
2022-09-18T14:35:34.915Z,25.50
2022-09-18T14:38:02.760Z,25.50
2022-09-18T14:40:36.404Z,25.50
2022-09-18T14:43:16.011Z,25.50
2022-09-18T14:45:43.974Z,25.50
2022-09-18T14:48:26.417Z,25.50
2022-09-18T14:51:02.665Z,25.50
2022-09-18T14:53:31.229Z,25.50
2022-09-18T14:56:02.410Z,25.50
2022-09-18T14:58:36.851Z,25.50
2022-09-18T15:01:07.850Z,25.50
2022-09-18T15:03:40.562Z,25.50
2022-09-18T15:06:11.271Z,25.50
2022-09-18T15:08:39.377Z,25.50
2022-09-18T15:11:07.667Z,25.50
2022-09-18T15:13:37.717Z,25.50
2022-09-18T15:16:05.984Z,25.50
2022-09-18T15:18:42.824Z,25.50
2022-09-18T15:21:22.948Z,25.50
2022-09-18T15:23:51.855Z,25.50
2022-09-18T15:26:21.135Z,25.50
2022-09-18T15:28:51.320Z,25.50
2022-09-18T15:31:21.517Z,25.50
2022-09-18T15:33:55.341Z,25.50
2022-09-18T15:36:27.609Z,25.50
2022-09-18T15:38:56.840Z,25.50
2022-09-18T15:41:32.770Z,25.50
2022-09-18T15:44:01.103Z,25.50
2022-09-18T15:46:30.528Z,25.50
2022-09-18T15:49:04.503Z,25.50
2022-09-18T15:51:33.072Z,25.50
2022-09-18T15:54:23.400Z,25.50
2022-09-18T15:56:52.927Z,25.50
2022-09-18T15:59:27.452Z,25.50
2022-09-18T16:01:55.415Z,25.50
2022-09-18T16:04:28.734Z,25.50
2022-09-18T16:07:00.290Z,25.50
2022-09-18T16:09:42.785Z,25.50
2022-09-18T16:12:36.065Z,25.50
2022-09-18T16:15:16.776Z,25.50
2022-09-18T16:18:00.243Z,25.50
2022-09-18T16:20:32.688Z,25.50
2022-09-18T16:23:13.378Z,25.50
2022-09-18T16:25:41.893Z,25.50
2022-09-18T16:28:23.442Z,25.50
2022-09-18T16:30:51.168Z,25.50
2022-09-18T16:33:20.772Z,25.50
2022-09-18T16:35:56.675Z,25.50
2022-09-18T16:38:24.724Z,25.50
2022-09-18T16:40:52.451Z,25.50
2022-09-18T16:43:20.580Z,25.50
2022-09-18T16:45:48.542Z,25.50
2022-09-18T16:48:16.613Z,25.50
2022-09-18T16:50:44.284Z,25.50
2022-09-18T16:53:13.320Z,25.50
2022-09-18T16:55:45.777Z,25.50
2022-09-18T16:58:14.720Z,25.50
2022-09-18T17:00:43.565Z,25.50
2022-09-18T17:03:11.388Z,25.50
2022-09-18T17:05:39.208Z,25.50
2022-09-18T17:08:07.372Z,25.50
2022-09-18T17:10:36.780Z,25.50
2022-09-18T17:13:05.159Z,25.50
2022-09-18T17:15:32.854Z,25.50
2022-09-18T17:18:00.543Z,25.50
2022-09-18T17:20:28.322Z,25.50
2022-09-18T17:22:56.437Z,25.50
2022-09-18T17:25:24.098Z,25.50
2022-09-18T17:27:53.122Z,25.50
2022-09-18T17:30:20.917Z,25.50
2022-09-18T17:32:48.853Z,25.50
2022-09-18T17:35:16.729Z,25.50
2022-09-18T17:37:44.791Z,25.50
2022-09-18T17:40:12.826Z,25.50
2022-09-18T17:42:40.749Z,25.50
2022-09-18T17:45:10.767Z,25.50
2022-09-18T17:47:38.437Z,25.50
2022-09-18T17:50:07.356Z,25.50
2022-09-18T17:52:35.540Z,25.50
2022-09-18T17:55:03.361Z,25.50
2022-09-18T17:57:31.960Z,25.50
2022-09-18T17:59:59.658Z,25.50
2022-09-18T18:02:29.065Z,25.40
2022-09-18T18:04:56.784Z,25.50
2022-09-18T18:07:24.485Z,25.50
2022-09-18T18:09:52.225Z,25.50
2022-09-18T18:12:19.889Z,25.50
2022-09-18T18:14:47.586Z,25.50
2022-09-18T18:17:15.272Z,25.50
2022-09-18T18:19:44.313Z,25.50
2022-09-18T18:22:12.009Z,25.50
2022-09-18T18:24:39.681Z,25.50
2022-09-18T18:27:07.356Z,25.50
2022-09-18T18:29:37.785Z,25.40
2022-09-18T18:32:05.588Z,25.50
2022-09-18T18:34:33.478Z,25.40
2022-09-18T18:37:05.284Z,25.40
2022-09-18T18:39:32.968Z,25.40
2022-09-18T18:42:00.684Z,25.50
2022-09-18T18:44:28.408Z,25.40
2022-09-18T18:46:56.160Z,25.40
2022-09-18T18:49:24.509Z,25.40
2022-09-18T18:51:52.226Z,25.50
2022-09-18T18:54:22.884Z,25.40
2022-09-18T18:56:51.560Z,25.40
2022-09-18T18:59:22.087Z,25.40
2022-09-18T19:01:50.222Z,25.40
2022-09-18T19:04:19.858Z,25.40
2022-09-18T19:06:48.573Z,25.40
2022-09-18T19:09:20.446Z,25.40
2022-09-18T19:11:50.817Z,25.40
2022-09-18T19:14:20.144Z,25.40
2022-09-18T19:16:49.297Z,25.40
2022-09-18T19:19:18.471Z,25.40
2022-09-18T19:21:46.208Z,25.40
2022-09-18T19:24:14.448Z,25.40
2022-09-18T19:26:43.354Z,25.40
2022-09-18T19:29:15.523Z,25.40
2022-09-18T19:31:44.747Z,25.40
2022-09-18T19:34:13.885Z,25.50
2022-09-18T19:36:46.592Z,25.40
2022-09-18T19:39:14.521Z,25.40
2022-09-18T19:41:47.344Z,25.40
2022-09-18T19:44:20.001Z,25.40
2022-09-18T19:46:47.992Z,25.40
2022-09-18T19:49:18.401Z,25.40
2022-09-18T19:51:46.425Z,25.40
2022-09-18T19:54:14.651Z,25.40
2022-09-18T19:56:46.895Z,25.40
2022-09-18T19:59:14.679Z,25.40
2022-09-18T20:01:44.254Z,25.40
2022-09-18T20:04:12.004Z,25.40
2022-09-18T20:06:40.421Z,25.40
2022-09-18T20:09:08.657Z,25.40
2022-09-18T20:11:36.387Z,25.40
2022-09-18T20:14:04.235Z,25.40
2022-09-18T20:16:32.426Z,25.40
2022-09-18T20:19:01.966Z,25.40
2022-09-18T20:21:30.591Z,25.40
2022-09-18T20:24:00.003Z,25.40
2022-09-18T20:26:28.761Z,25.30
2022-09-18T20:28:56.433Z,25.30
2022-09-18T20:31:24.657Z,25.30
2022-09-18T20:33:55.440Z,25.30
2022-09-18T20:36:25.600Z,25.30
2022-09-18T20:38:57.761Z,25.30
2022-09-18T20:41:29.558Z,25.30
2022-09-18T20:44:00.062Z,25.30
2022-09-18T20:46:27.834Z,25.30
2022-09-18T20:48:55.917Z,25.30
2022-09-18T20:51:26.579Z,25.30
2022-09-18T20:53:56.097Z,25.30
2022-09-18T20:56:24.921Z,25.30
2022-09-18T20:58:53.205Z,25.30
2022-09-18T21:01:23.056Z,25.30
2022-09-18T21:03:56.507Z,25.30
2022-09-18T21:06:27.555Z,25.30
2022-09-18T21:08:56.207Z,25.30
2022-09-18T21:11:26.316Z,25.20
2022-09-18T21:13:56.499Z,25.20
2022-09-18T21:16:26.206Z,25.20
2022-09-18T21:18:56.665Z,25.20
2022-09-18T21:21:26.830Z,25.20
2022-09-18T21:23:56.261Z,25.20
2022-09-18T21:26:25.480Z,25.20
2022-09-18T21:28:54.815Z,25.30
2022-09-18T21:31:23.328Z,25.20
2022-09-18T21:33:52.836Z,25.20
2022-09-18T21:36:21.582Z,25.20
2022-09-18T21:38:51.999Z,25.20
2022-09-18T21:41:21.480Z,25.20
2022-09-18T21:43:50.987Z,25.20
2022-09-18T21:46:21.051Z,25.20
2022-09-18T21:48:52.802Z,25.20
2022-09-18T21:51:21.122Z,25.20
2022-09-18T21:53:50.128Z,25.20
2022-09-18T21:56:19.857Z,25.20
2022-09-18T21:58:48.540Z,25.20
2022-09-18T22:01:19.035Z,25.20
2022-09-18T22:03:52.056Z,25.20
2022-09-18T22:06:20.448Z,25.20
2022-09-18T22:08:50.781Z,25.20
2022-09-18T22:11:19.635Z,25.20
2022-09-18T22:13:47.640Z,25.20
2022-09-18T22:16:15.369Z,25.20
2022-09-18T22:18:43.132Z,25.20
2022-09-18T22:21:20.292Z,25.20
2022-09-18T22:23:54.542Z,25.20
2022-09-18T22:26:23.084Z,25.20
2022-09-18T22:28:53.299Z,25.20
2022-09-18T22:31:22.137Z,25.20
2022-09-18T22:33:53.452Z,25.20
2022-09-18T22:36:21.361Z,25.20
2022-09-18T22:38:49.935Z,25.20
2022-09-18T22:41:19.100Z,25.20
2022-09-18T22:43:47.013Z,25.20
2022-09-18T22:46:16.669Z,25.20
2022-09-18T22:48:45.000Z,25.20
2022-09-18T22:51:15.156Z,25.20
2022-09-18T22:53:48.049Z,25.20
2022-09-18T22:56:15.955Z,25.10
2022-09-18T22:58:45.146Z,25.10
2022-09-18T23:01:22.129Z,25.20
2022-09-18T23:03:53.417Z,25.10
2022-09-18T23:06:25.393Z,25.10
2022-09-18T23:08:53.860Z,25.20
2022-09-18T23:11:23.669Z,25.10
2022-09-18T23:13:55.091Z,25.20
2022-09-18T23:16:24.585Z,25.10
2022-09-18T23:18:54.157Z,25.10
2022-09-18T23:21:23.655Z,25.10
2022-09-18T23:23:51.658Z,25.10
2022-09-18T23:26:23.148Z,25.10
2022-09-18T23:28:55.061Z,25.20
2022-09-18T23:31:24.613Z,25.10
2022-09-18T23:33:54.121Z,25.10
2022-09-18T23:36:24.252Z,25.10
2022-09-18T23:38:55.859Z,25.10
2022-09-18T23:41:23.896Z,25.10
2022-09-18T23:43:54.447Z,25.10
2022-09-18T23:46:23.703Z,25.10
2022-09-18T23:48:55.479Z,25.10
2022-09-18T23:51:24.728Z,25.10
2022-09-18T23:53:52.773Z,25.10
2022-09-18T23:56:20.495Z,25.10
2022-09-18T23:58:48.160Z,25.10
